sensor_id;sensor_type;location;lat;lon;timestamp;P1;durP1;ratioP1;P2;durP2;ratioP2
63499;SDS011;49654;51.142;14.924;2023-11-18T00:01:05;5.40;;;4.90;;
63499;SDS011;49654;51.142;14.924;2023-11-18T00:03:35;7.40;;;6.70;;
63499;SDS011;49654;51.142;14.924;2023-11-18T00:06:02;6.63;;;5.33;;
63499;SDS011;49654;51.142;14.924;2023-11-18T00:08:30;6.20;;;5.17;;
63499;SDS011;49654;51.142;14.924;2023-11-18T00:10:58;5.90;;;5.30;;
63499;SDS011;49654;51.142;14.924;2023-11-18T00:13:25;6.60;;;5.43;;
63499;SDS011;49654;51.142;14.924;2023-11-18T00:15:53;7.27;;;5.73;;
63499;SDS011;49654;51.142;14.924;2023-11-18T00:18:20;6.20;;;5.60;;
63499;SDS011;49654;51.142;14.924;2023-11-18T00:20:49;6.77;;;6.07;;
63499;SDS011;49654;51.142;14.924;2023-11-18T00:23:17;7.13;;;5.97;;
63499;SDS011;49654;51.142;14.924;2023-11-18T00:25:44;8.20;;;6.40;;
63499;SDS011;49654;51.142;14.924;2023-11-18T00:28:11;7.53;;;6.03;;
63499;SDS011;49654;51.142;14.924;2023-11-18T00:30:38;8.83;;;6.60;;
63499;SDS011;49654;51.142;14.924;2023-11-18T00:33:06;8.50;;;6.63;;
63499;SDS011;49654;51.142;14.924;2023-11-18T00:35:34;6.97;;;6.27;;
63499;SDS011;49654;51.142;14.924;2023-11-18T00:38:02;8.93;;;6.50;;
63499;SDS011;49654;51.142;14.924;2023-11-18T00:40:30;6.47;;;5.77;;
63499;SDS011;49654;51.142;14.924;2023-11-18T00:42:57;6.53;;;5.83;;
63499;SDS011;49654;51.142;14.924;2023-11-18T00:45:24;7.47;;;6.63;;
63499;SDS011;49654;51.142;14.924;2023-11-18T00:47:52;8.17;;;7.00;;
63499;SDS011;49654;51.142;14.924;2023-11-18T00:50:20;8.70;;;6.80;;
63499;SDS011;49654;51.142;14.924;2023-11-18T00:52:47;7.63;;;6.83;;
63499;SDS011;49654;51.142;14.924;2023-11-18T00:55:16;7.63;;;6.10;;
63499;SDS011;49654;51.142;14.924;2023-11-18T00:57:44;7.53;;;6.30;;
63499;SDS011;49654;51.142;14.924;2023-11-18T01:00:12;7.37;;;6.50;;
63499;SDS011;49654;51.142;14.924;2023-11-18T01:02:42;8.60;;;6.67;;
63499;SDS011;49654;51.142;14.924;2023-11-18T01:05:10;7.50;;;6.70;;
63499;SDS011;49654;51.142;14.924;2023-11-18T01:07:39;9.87;;;7.10;;
63499;SDS011;49654;51.142;14.924;2023-11-18T01:10:07;7.40;;;6.60;;
63499;SDS011;49654;51.142;14.924;2023-11-18T01:12:36;7.37;;;6.60;;
63499;SDS011;49654;51.142;14.924;2023-11-18T01:15:04;7.70;;;6.33;;
63499;SDS011;49654;51.142;14.924;2023-11-18T01:17:32;8.33;;;6.83;;
63499;SDS011;49654;51.142;14.924;2023-11-18T01:19:59;8.27;;;7.37;;
63499;SDS011;49654;51.142;14.924;2023-11-18T01:22:33;7.83;;;7.03;;
63499;SDS011;49654;51.142;14.924;2023-11-18T01:25:01;8.27;;;7.20;;
63499;SDS011;49654;51.142;14.924;2023-11-18T01:27:28;7.93;;;7.13;;
63499;SDS011;49654;51.142;14.924;2023-11-18T01:29:56;8.80;;;7.13;;
63499;SDS011;49654;51.142;14.924;2023-11-18T01:32:23;8.83;;;7.73;;
63499;SDS011;49654;51.142;14.924;2023-11-18T01:34:52;9.13;;;7.93;;
63499;SDS011;49654;51.142;14.924;2023-11-18T01:37:19;8.17;;;7.20;;
63499;SDS011;49654;51.142;14.924;2023-11-18T01:39:47;8.17;;;7.23;;
63499;SDS011;49654;51.142;14.924;2023-11-18T01:42:14;8.40;;;7.50;;
63499;SDS011;49654;51.142;14.924;2023-11-18T01:44:42;9.20;;;7.00;;
63499;SDS011;49654;51.142;14.924;2023-11-18T01:47:10;7.80;;;7.00;;
63499;SDS011;49654;51.142;14.924;2023-11-18T01:49:38;7.83;;;7.00;;
63499;SDS011;49654;51.142;14.924;2023-11-18T01:52:06;8.90;;;6.90;;
63499;SDS011;49654;51.142;14.924;2023-11-18T01:54:34;8.10;;;6.90;;
63499;SDS011;49654;51.142;14.924;2023-11-18T01:57:03;8.40;;;7.23;;
63499;SDS011;49654;51.142;14.924;2023-11-18T01:59:31;8.23;;;7.13;;
63499;SDS011;49654;51.142;14.924;2023-11-18T02:01:59;7.87;;;6.90;;
63499;SDS011;49654;51.142;14.924;2023-11-18T02:04:31;8.83;;;7.10;;
63499;SDS011;49654;51.142;14.924;2023-11-18T02:06:59;8.30;;;7.17;;
63499;SDS011;49654;51.142;14.924;2023-11-18T02:09:29;8.77;;;7.33;;
63499;SDS011;49654;51.142;14.924;2023-11-18T02:11:59;7.53;;;6.60;;
63499;SDS011;49654;51.142;14.924;2023-11-18T02:14:31;7.93;;;6.53;;
63499;SDS011;49654;51.142;14.924;2023-11-18T02:17:02;8.57;;;6.37;;
63499;SDS011;49654;51.142;14.924;2023-11-18T02:19:33;7.70;;;6.73;;
63499;SDS011;49654;51.142;14.924;2023-11-18T02:22:01;7.80;;;6.60;;
63499;SDS011;49654;51.142;14.924;2023-11-18T02:24:32;7.80;;;6.73;;
63499;SDS011;49654;51.142;14.924;2023-11-18T02:27:05;8.00;;;6.87;;
63499;SDS011;49654;51.142;14.924;2023-11-18T02:29:33;7.93;;;6.27;;
63499;SDS011;49654;51.142;14.924;2023-11-18T02:32:04;6.80;;;5.93;;
63499;SDS011;49654;51.142;14.924;2023-11-18T02:34:39;8.30;;;6.40;;
63499;SDS011;49654;51.142;14.924;2023-11-18T02:37:13;7.73;;;6.93;;
63499;SDS011;49654;51.142;14.924;2023-11-18T02:39:42;7.97;;;6.47;;
63499;SDS011;49654;51.142;14.924;2023-11-18T02:42:14;8.03;;;7.17;;
63499;SDS011;49654;51.142;14.924;2023-11-18T02:44:43;8.90;;;7.27;;
63499;SDS011;49654;51.142;14.924;2023-11-18T02:47:11;8.47;;;7.00;;
63499;SDS011;49654;51.142;14.924;2023-11-18T02:49:38;8.70;;;7.43;;
63499;SDS011;49654;51.142;14.924;2023-11-18T02:52:06;9.53;;;7.13;;
63499;SDS011;49654;51.142;14.924;2023-11-18T02:54:35;9.03;;;7.43;;
63499;SDS011;49654;51.142;14.924;2023-11-18T02:57:03;10.07;;;7.35;;
63499;SDS011;49654;51.142;14.924;2023-11-18T02:59:31;9.20;;;7.23;;
63499;SDS011;49654;51.142;14.924;2023-11-18T03:01:58;8.90;;;7.90;;
63499;SDS011;49654;51.142;14.924;2023-11-18T03:04:27;8.77;;;7.67;;
63499;SDS011;49654;51.142;14.924;2023-11-18T03:06:54;8.73;;;7.07;;
63499;SDS011;49654;51.142;14.924;2023-11-18T03:09:22;9.37;;;7.73;;
63499;SDS011;49654;51.142;14.924;2023-11-18T03:11:53;8.07;;;7.10;;
63499;SDS011;49654;51.142;14.924;2023-11-18T03:14:20;9.47;;;7.63;;
63499;SDS011;49654;51.142;14.924;2023-11-18T03:19:51;8.80;;;7.40;;
63499;SDS011;49654;51.142;14.924;2023-11-18T03:22:19;10.17;;;8.13;;
63499;SDS011;49654;51.142;14.924;2023-11-18T03:24:46;8.53;;;7.40;;
63499;SDS011;49654;51.142;14.924;2023-11-18T03:27:13;9.40;;;7.57;;
63499;SDS011;49654;51.142;14.924;2023-11-18T03:29:40;9.83;;;7.50;;
63499;SDS011;49654;51.142;14.924;2023-11-18T03:32:11;9.40;;;7.37;;
63499;SDS011;49654;51.142;14.924;2023-11-18T03:34:40;11.03;;;7.40;;
63499;SDS011;49654;51.142;14.924;2023-11-18T03:37:07;8.13;;;6.80;;
63499;SDS011;49654;51.142;14.924;2023-11-18T03:39:34;8.00;;;6.60;;
63499;SDS011;49654;51.142;14.924;2023-11-18T03:42:01;9.93;;;6.20;;
63499;SDS011;49654;51.142;14.924;2023-11-18T03:44:29;6.50;;;5.80;;
63499;SDS011;49654;51.142;14.924;2023-11-18T03:46:56;7.20;;;6.40;;
63499;SDS011;49654;51.142;14.924;2023-11-18T03:49:23;6.80;;;6.00;;
63499;SDS011;49654;51.142;14.924;2023-11-18T03:51:52;6.87;;;6.10;;
63499;SDS011;49654;51.142;14.924;2023-11-18T03:54:20;7.87;;;6.47;;
63499;SDS011;49654;51.142;14.924;2023-11-18T03:56:47;11.10;;;7.27;;
63499;SDS011;49654;51.142;14.924;2023-11-18T03:59:14;7.50;;;6.67;;
63499;SDS011;49654;51.142;14.924;2023-11-18T04:01:41;8.60;;;7.00;;
63499;SDS011;49654;51.142;14.924;2023-11-18T04:04:08;7.93;;;6.50;;
63499;SDS011;49654;51.142;14.924;2023-11-18T04:06:35;8.87;;;7.17;;
63499;SDS011;49654;51.142;14.924;2023-11-18T04:09:04;8.43;;;7.40;;
63499;SDS011;49654;51.142;14.924;2023-11-18T04:11:32;7.70;;;5.60;;
63499;SDS011;49654;51.142;14.924;2023-11-18T04:14:00;9.47;;;6.80;;
63499;SDS011;49654;51.142;14.924;2023-11-18T04:16:29;8.00;;;6.47;;
63499;SDS011;49654;51.142;14.924;2023-11-18T04:18:56;6.83;;;5.97;;
63499;SDS011;49654;51.142;14.924;2023-11-18T04:21:26;8.50;;;6.67;;
63499;SDS011;49654;51.142;14.924;2023-11-18T04:23:53;6.80;;;6.10;;
63499;SDS011;49654;51.142;14.924;2023-11-18T04:26:21;7.83;;;6.50;;
63499;SDS011;49654;51.142;14.924;2023-11-18T04:28:50;7.17;;;5.90;;
63499;SDS011;49654;51.142;14.924;2023-11-18T04:31:17;10.00;;;5.97;;
63499;SDS011;49654;51.142;14.924;2023-11-18T04:36:32;9.87;;;6.80;;
63499;SDS011;49654;51.142;14.924;2023-11-18T04:39:01;9.17;;;6.17;;
63499;SDS011;49654;51.142;14.924;2023-11-18T04:41:30;7.63;;;6.30;;
63499;SDS011;49654;51.142;14.924;2023-11-18T04:43:58;8.73;;;6.67;;
63499;SDS011;49654;51.142;14.924;2023-11-18T04:46:25;7.57;;;6.50;;
63499;SDS011;49654;51.142;14.924;2023-11-18T04:48:52;9.43;;;7.37;;
63499;SDS011;49654;51.142;14.924;2023-11-18T04:51:20;8.20;;;7.13;;
63499;SDS011;49654;51.142;14.924;2023-11-18T04:53:48;8.07;;;7.07;;
63499;SDS011;49654;51.142;14.924;2023-11-18T04:56:15;7.90;;;7.10;;
63499;SDS011;49654;51.142;14.924;2023-11-18T04:58:45;9.53;;;7.67;;
63499;SDS011;49654;51.142;14.924;2023-11-18T05:01:13;8.77;;;7.43;;
63499;SDS011;49654;51.142;14.924;2023-11-18T05:03:40;10.23;;;8.30;;
63499;SDS011;49654;51.142;14.924;2023-11-18T05:06:08;9.60;;;7.97;;
63499;SDS011;49654;51.142;14.924;2023-11-18T05:08:36;9.60;;;8.60;;
63499;SDS011;49654;51.142;14.924;2023-11-18T05:11:06;10.20;;;9.10;;
63499;SDS011;49654;51.142;14.924;2023-11-18T05:13:33;11.93;;;8.57;;
63499;SDS011;49654;51.142;14.924;2023-11-18T05:16:02;10.07;;;8.60;;
63499;SDS011;49654;51.142;14.924;2023-11-18T05:18:30;10.20;;;8.57;;
63499;SDS011;49654;51.142;14.924;2023-11-18T05:21:01;8.83;;;7.60;;
63499;SDS011;49654;51.142;14.924;2023-11-18T05:23:30;10.13;;;8.53;;
63499;SDS011;49654;51.142;14.924;2023-11-18T05:25:57;9.43;;;8.10;;
63499;SDS011;49654;51.142;14.924;2023-11-18T05:28:30;11.50;;;8.33;;
63499;SDS011;49654;51.142;14.924;2023-11-18T05:31:01;10.17;;;8.67;;
63499;SDS011;49654;51.142;14.924;2023-11-18T05:33:29;9.57;;;8.57;;
63499;SDS011;49654;51.142;14.924;2023-11-18T05:35:57;10.93;;;9.17;;
63499;SDS011;49654;51.142;14.924;2023-11-18T05:38:25;10.43;;;8.60;;
63499;SDS011;49654;51.142;14.924;2023-11-18T05:40:57;12.07;;;9.03;;
63499;SDS011;49654;51.142;14.924;2023-11-18T05:43:28;10.00;;;8.87;;
63499;SDS011;49654;51.142;14.924;2023-11-18T05:46:03;12.77;;;9.50;;
63499;SDS011;49654;51.142;14.924;2023-11-18T05:48:46;10.57;;;9.47;;
63499;SDS011;49654;51.142;14.924;2023-11-18T05:51:14;11.93;;;10.13;;
63499;SDS011;49654;51.142;14.924;2023-11-18T05:53:41;12.13;;;9.47;;
63499;SDS011;49654;51.142;14.924;2023-11-18T05:56:23;13.00;;;10.10;;
63499;SDS011;49654;51.142;14.924;2023-11-18T05:58:51;13.67;;;10.23;;
63499;SDS011;49654;51.142;14.924;2023-11-18T06:04:04;16.70;;;13.50;;
63499;SDS011;49654;51.142;14.924;2023-11-18T06:06:33;13.63;;;11.73;;
63499;SDS011;49654;51.142;14.924;2023-11-18T06:09:03;12.17;;;9.30;;
63499;SDS011;49654;51.142;14.924;2023-11-18T06:11:35;11.33;;;9.43;;
63499;SDS011;49654;51.142;14.924;2023-11-18T06:14:06;11.60;;;9.53;;
63499;SDS011;49654;51.142;14.924;2023-11-18T06:16:36;10.90;;;8.60;;
63499;SDS011;49654;51.142;14.924;2023-11-18T06:19:05;11.73;;;8.53;;
63499;SDS011;49654;51.142;14.924;2023-11-18T06:21:37;9.20;;;8.03;;
63499;SDS011;49654;51.142;14.924;2023-11-18T06:24:05;11.07;;;8.70;;
63499;SDS011;49654;51.142;14.924;2023-11-18T06:26:34;11.07;;;9.37;;
63499;SDS011;49654;51.142;14.924;2023-11-18T06:29:02;10.87;;;9.30;;
63499;SDS011;49654;51.142;14.924;2023-11-18T06:31:31;13.00;;;8.93;;
63499;SDS011;49654;51.142;14.924;2023-11-18T06:34:00;11.83;;;9.43;;
63499;SDS011;49654;51.142;14.924;2023-11-18T06:36:42;13.40;;;9.77;;
63499;SDS011;49654;51.142;14.924;2023-11-18T06:39:09;12.30;;;9.63;;
63499;SDS011;49654;51.142;14.924;2023-11-18T06:41:38;13.37;;;10.03;;
63499;SDS011;49654;51.142;14.924;2023-11-18T06:44:13;12.43;;;9.73;;
63499;SDS011;49654;51.142;14.924;2023-11-18T06:46:43;14.43;;;10.37;;
63499;SDS011;49654;51.142;14.924;2023-11-18T06:49:14;12.87;;;10.17;;
63499;SDS011;49654;51.142;14.924;2023-11-18T06:51:52;12.53;;;9.83;;
63499;SDS011;49654;51.142;14.924;2023-11-18T07:18:57;16.00;;;12.57;;
63499;SDS011;49654;51.142;14.924;2023-11-18T07:21:25;16.33;;;10.93;;
63499;SDS011;49654;51.142;14.924;2023-11-18T07:23:52;16.93;;;12.37;;
63499;SDS011;49654;51.142;14.924;2023-11-18T07:26:21;14.93;;;11.53;;
63499;SDS011;49654;51.142;14.924;2023-11-18T07:28:49;14.97;;;11.37;;
63499;SDS011;49654;51.142;14.924;2023-11-18T07:31:18;16.10;;;11.30;;
63499;SDS011;49654;51.142;14.924;2023-11-18T07:33:45;14.60;;;11.80;;
63499;SDS011;49654;51.142;14.924;2023-11-18T07:36:16;15.00;;;11.13;;
63499;SDS011;49654;51.142;14.924;2023-11-18T07:38:45;15.50;;;11.70;;
63499;SDS011;49654;51.142;14.924;2023-11-18T07:41:13;15.43;;;11.37;;
63499;SDS011;49654;51.142;14.924;2023-11-18T07:43:50;13.53;;;10.27;;
63499;SDS011;49654;51.142;14.924;2023-11-18T07:46:20;17.30;;;11.23;;
63499;SDS011;49654;51.142;14.924;2023-11-18T07:48:48;15.97;;;11.37;;
63499;SDS011;49654;51.142;14.924;2023-11-18T07:51:17;15.17;;;11.67;;
63499;SDS011;49654;51.142;14.924;2023-11-18T07:53:47;16.87;;;12.00;;
63499;SDS011;49654;51.142;14.924;2023-11-18T07:56:14;15.07;;;10.87;;
63499;SDS011;49654;51.142;14.924;2023-11-18T07:58:42;15.93;;;12.20;;
63499;SDS011;49654;51.142;14.924;2023-11-18T08:01:11;13.70;;;10.80;;
63499;SDS011;49654;51.142;14.924;2023-11-18T08:03:41;14.43;;;10.60;;
63499;SDS011;49654;51.142;14.924;2023-11-18T08:06:10;14.73;;;10.57;;
63499;SDS011;49654;51.142;14.924;2023-11-18T08:08:39;15.33;;;10.87;;
63499;SDS011;49654;51.142;14.924;2023-11-18T08:11:07;15.27;;;11.13;;
63499;SDS011;49654;51.142;14.924;2023-11-18T08:13:37;14.93;;;11.43;;
63499;SDS011;49654;51.142;14.924;2023-11-18T08:16:04;15.93;;;11.80;;
63499;SDS011;49654;51.142;14.924;2023-11-18T08:18:37;14.53;;;11.57;;
63499;SDS011;49654;51.142;14.924;2023-11-18T08:21:05;17.17;;;12.50;;
63499;SDS011;49654;51.142;14.924;2023-11-18T08:23:33;15.50;;;11.80;;
63499;SDS011;49654;51.142;14.924;2023-11-18T08:26:03;13.40;;;10.37;;
63499;SDS011;49654;51.142;14.924;2023-11-18T08:28:32;13.40;;;10.40;;
63499;SDS011;49654;51.142;14.924;2023-11-18T08:30:59;13.37;;;10.57;;
63499;SDS011;49654;51.142;14.924;2023-11-18T08:33:27;13.57;;;10.93;;
63499;SDS011;49654;51.142;14.924;2023-11-18T08:35:57;14.40;;;11.03;;
63499;SDS011;49654;51.142;14.924;2023-11-18T08:38:24;14.73;;;11.00;;
63499;SDS011;49654;51.142;14.924;2023-11-18T08:40:51;13.90;;;10.33;;
63499;SDS011;49654;51.142;14.924;2023-11-18T08:43:20;13.70;;;10.50;;
63499;SDS011;49654;51.142;14.924;2023-11-18T08:45:48;11.80;;;9.73;;
63499;SDS011;49654;51.142;14.924;2023-11-18T08:48:15;13.87;;;11.40;;
63499;SDS011;49654;51.142;14.924;2023-11-18T08:50:48;15.00;;;11.00;;
63499;SDS011;49654;51.142;14.924;2023-11-18T08:53:29;12.63;;;10.37;;
63499;SDS011;49654;51.142;14.924;2023-11-18T08:56:07;12.13;;;9.90;;
63499;SDS011;49654;51.142;14.924;2023-11-18T09:01:25;10.68;;;8.93;;
63499;SDS011;49654;51.142;14.924;2023-11-18T09:03:55;11.20;;;8.93;;
63499;SDS011;49654;51.142;14.924;2023-11-18T09:06:27;11.90;;;10.03;;
63499;SDS011;49654;51.142;14.924;2023-11-18T09:08:54;10.70;;;8.57;;
63499;SDS011;49654;51.142;14.924;2023-11-18T09:11:23;10.80;;;8.93;;
63499;SDS011;49654;51.142;14.924;2023-11-18T09:13:54;10.60;;;8.83;;
63499;SDS011;49654;51.142;14.924;2023-11-18T09:16:29;11.40;;;8.70;;
63499;SDS011;49654;51.142;14.924;2023-11-18T09:18:58;10.83;;;7.97;;
63499;SDS011;49654;51.142;14.924;2023-11-18T09:21:28;10.50;;;8.30;;
63499;SDS011;49654;51.142;14.924;2023-11-18T09:23:58;9.53;;;8.00;;
63499;SDS011;49654;51.142;14.924;2023-11-18T09:26:25;10.20;;;8.20;;
63499;SDS011;49654;51.142;14.924;2023-11-18T09:28:55;9.20;;;7.63;;
63499;SDS011;49654;51.142;14.924;2023-11-18T09:31:23;8.25;;;7.28;;
63499;SDS011;49654;51.142;14.924;2023-11-18T09:33:53;7.73;;;6.80;;
63499;SDS011;49654;51.142;14.924;2023-11-18T09:36:23;7.40;;;6.20;;
63499;SDS011;49654;51.142;14.924;2023-11-18T09:38:54;9.03;;;6.60;;
63499;SDS011;49654;51.142;14.924;2023-11-18T09:41:22;8.50;;;6.97;;
63499;SDS011;49654;51.142;14.924;2023-11-18T09:43:52;8.00;;;6.83;;
63499;SDS011;49654;51.142;14.924;2023-11-18T09:46:28;8.57;;;6.57;;
63499;SDS011;49654;51.142;14.924;2023-11-18T09:49:10;8.53;;;7.00;;
63499;SDS011;49654;51.142;14.924;2023-11-18T09:52:07;8.40;;;6.70;;
63499;SDS011;49654;51.142;14.924;2023-11-18T09:54:39;7.47;;;6.53;;
63499;SDS011;49654;51.142;14.924;2023-11-18T09:57:13;8.53;;;6.40;;
63499;SDS011;49654;51.142;14.924;2023-11-18T09:59:49;7.70;;;6.90;;
63499;SDS011;49654;51.142;14.924;2023-11-18T10:02:25;7.72;;;6.90;;
63499;SDS011;49654;51.142;14.924;2023-11-18T10:04:54;7.13;;;6.00;;
63499;SDS011;49654;51.142;14.924;2023-11-18T10:07:26;7.03;;;6.33;;
63499;SDS011;49654;51.142;14.924;2023-11-18T10:09:58;7.40;;;6.50;;
63499;SDS011;49654;51.142;14.924;2023-11-18T10:15:37;9.50;;;6.50;;
63499;SDS011;49654;51.142;14.924;2023-11-18T10:18:07;6.80;;;6.10;;
63499;SDS011;49654;51.142;14.924;2023-11-18T10:20:50;7.68;;;5.88;;
63499;SDS011;49654;51.142;14.924;2023-11-18T10:23:20;7.80;;;7.00;;
63499;SDS011;49654;51.142;14.924;2023-11-18T10:25:49;8.02;;;6.72;;
63499;SDS011;49654;51.142;14.924;2023-11-18T10:28:21;8.07;;;6.50;;
63499;SDS011;49654;51.142;14.924;2023-11-18T10:30:50;6.22;;;5.63;;
63499;SDS011;49654;51.142;14.924;2023-11-18T10:33:17;5.85;;;5.25;;
63499;SDS011;49654;51.142;14.924;2023-11-18T10:35:48;7.40;;;5.63;;
63499;SDS011;49654;51.142;14.924;2023-11-18T10:38:22;6.38;;;5.72;;
63499;SDS011;49654;51.142;14.924;2023-11-18T10:41:15;10.18;;;5.38;;
63499;SDS011;49654;51.142;14.924;2023-11-18T10:44:05;5.25;;;4.72;;
63499;SDS011;49654;51.142;14.924;2023-11-18T10:46:40;6.55;;;5.10;;
63499;SDS011;49654;51.142;14.924;2023-11-18T10:52:01;5.85;;;5.20;;
63499;SDS011;49654;51.142;14.924;2023-11-18T10:54:34;5.57;;;4.80;;
63499;SDS011;49654;51.142;14.924;2023-11-18T10:57:03;4.93;;;4.43;;
63499;SDS011;49654;51.142;14.924;2023-11-18T11:02:18;4.80;;;4.25;;
63499;SDS011;49654;51.142;14.924;2023-11-18T11:04:49;6.20;;;4.43;;
63499;SDS011;49654;51.142;14.924;2023-11-18T11:07:19;4.93;;;3.70;;
63499;SDS011;49654;51.142;14.924;2023-11-18T11:09:52;4.60;;;4.20;;
63499;SDS011;49654;51.142;14.924;2023-11-18T11:12:22;5.72;;;4.40;;
63499;SDS011;49654;51.142;14.924;2023-11-18T11:14:54;5.93;;;4.82;;
63499;SDS011;49654;51.142;14.924;2023-11-18T11:17:28;5.60;;;4.85;;
63499;SDS011;49654;51.142;14.924;2023-11-18T11:20:07;5.18;;;4.68;;
63499;SDS011;49654;51.142;14.924;2023-11-18T11:22:52;5.00;;;4.30;;
63499;SDS011;49654;51.142;14.924;2023-11-18T11:25:35;5.00;;;4.50;;
63499;SDS011;49654;51.142;14.924;2023-11-18T11:28:14;6.07;;;4.85;;
63499;SDS011;49654;51.142;14.924;2023-11-18T11:30:54;5.78;;;5.05;;
63499;SDS011;49654;51.142;14.924;2023-11-18T11:33:28;5.80;;;4.82;;
63499;SDS011;49654;51.142;14.924;2023-11-18T11:36:06;6.55;;;4.75;;
63499;SDS011;49654;51.142;14.924;2023-11-18T11:38:53;6.40;;;4.40;;
63499;SDS011;49654;51.142;14.924;2023-11-18T11:41:21;5.55;;;4.93;;
63499;SDS011;49654;51.142;14.924;2023-11-18T11:44:04;4.72;;;4.00;;
63499;SDS011;49654;51.142;14.924;2023-11-18T11:49:55;4.20;;;3.80;;
63499;SDS011;49654;51.142;14.924;2023-11-18T11:52:53;4.25;;;3.85;;
63499;SDS011;49654;51.142;14.924;2023-11-18T12:02:50;4.45;;;3.88;;
63499;SDS011;49654;51.142;14.924;2023-11-18T12:09:14;4.97;;;4.47;;
63499;SDS011;49654;51.142;14.924;2023-11-18T12:11:49;5.00;;;4.50;;
63499;SDS011;49654;51.142;14.924;2023-11-18T12:14:22;5.63;;;5.00;;
63499;SDS011;49654;51.142;14.924;2023-11-18T12:17:08;7.53;;;5.80;;
63499;SDS011;49654;51.142;14.924;2023-11-18T12:19:39;8.77;;;6.05;;
63499;SDS011;49654;51.142;14.924;2023-11-18T12:22:24;7.78;;;6.15;;
63499;SDS011;49654;51.142;14.924;2023-11-18T12:28:07;6.50;;;5.80;;
63499;SDS011;49654;51.142;14.924;2023-11-18T12:30:41;5.50;;;4.93;;
63499;SDS011;49654;51.142;14.924;2023-11-18T12:45:43;5.32;;;4.82;;
63499;SDS011;49654;51.142;14.924;2023-11-18T12:48:26;6.75;;;5.10;;
63499;SDS011;49654;51.142;14.924;2023-11-18T12:51:37;5.47;;;4.97;;
63499;SDS011;49654;51.142;14.924;2023-11-18T12:57:55;5.82;;;5.20;;
63499;SDS011;49654;51.142;14.924;2023-11-18T13:00:29;5.72;;;5.13;;
63499;SDS011;49654;51.142;14.924;2023-11-18T13:03:17;5.32;;;4.82;;
63499;SDS011;49654;51.142;14.924;2023-11-18T13:05:46;5.68;;;5.03;;
63499;SDS011;49654;51.142;14.924;2023-11-18T13:08:19;5.93;;;4.85;;
63499;SDS011;49654;51.142;14.924;2023-11-18T13:10:48;4.70;;;4.18;;
63499;SDS011;49654;51.142;14.924;2023-11-18T13:13:18;4.30;;;3.90;;
63499;SDS011;49654;51.142;14.924;2023-11-18T13:15:52;4.53;;;3.70;;
63499;SDS011;49654;51.142;14.924;2023-11-18T13:18:28;5.45;;;4.38;;
63499;SDS011;49654;51.142;14.924;2023-11-18T13:21:17;3.60;;;3.28;;
63499;SDS011;49654;51.142;14.924;2023-11-18T13:23:48;3.63;;;3.33;;
63499;SDS011;49654;51.142;14.924;2023-11-18T13:26:32;5.70;;;3.70;;
63499;SDS011;49654;51.142;14.924;2023-11-18T13:29:02;5.05;;;3.65;;
63499;SDS011;49654;51.142;14.924;2023-11-18T13:31:30;3.58;;;3.28;;
63499;SDS011;49654;51.142;14.924;2023-11-18T13:33:58;3.90;;;3.05;;
63499;SDS011;49654;51.142;14.924;2023-11-18T13:36:25;4.85;;;3.42;;
63499;SDS011;49654;51.142;14.924;2023-11-18T13:38:53;3.78;;;3.25;;
63499;SDS011;49654;51.142;14.924;2023-11-18T13:41:30;4.85;;;3.33;;
63499;SDS011;49654;51.142;14.924;2023-11-18T13:43:58;4.38;;;3.80;;
63499;SDS011;49654;51.142;14.924;2023-11-18T13:46:25;4.93;;;4.25;;
63499;SDS011;49654;51.142;14.924;2023-11-18T13:48:53;5.55;;;4.50;;
63499;SDS011;49654;51.142;14.924;2023-11-18T13:51:21;12.27;;;9.25;;
63499;SDS011;49654;51.142;14.924;2023-11-18T13:53:50;59.80;;;38.38;;
63499;SDS011;49654;51.142;14.924;2023-11-18T13:58:52;170.05;;;105.10;;
63499;SDS011;49654;51.142;14.924;2023-11-18T14:01:20;103.15;;;69.43;;
63499;SDS011;49654;51.142;14.924;2023-11-18T14:03:57;12.32;;;9.82;;
63499;SDS011;49654;51.142;14.924;2023-11-18T14:09:06;13.90;;;12.50;;
63499;SDS011;49654;51.142;14.924;2023-11-18T14:11:36;4.90;;;3.40;;
63499;SDS011;49654;51.142;14.924;2023-11-18T14:19:09;4.30;;;3.42;;
63499;SDS011;49654;51.142;14.924;2023-11-18T14:21:36;3.90;;;3.50;;
63499;SDS011;49654;51.142;14.924;2023-11-18T14:24:04;4.18;;;3.78;;
63499;SDS011;49654;51.142;14.924;2023-11-18T14:26:32;6.00;;;5.43;;
63499;SDS011;49654;51.142;14.924;2023-11-18T14:28:59;11.68;;;9.98;;
63499;SDS011;49654;51.142;14.924;2023-11-18T14:31:27;7.53;;;6.83;;
63499;SDS011;49654;51.142;14.924;2023-11-18T14:33:55;4.10;;;3.70;;
63499;SDS011;49654;51.142;14.924;2023-11-18T14:36:24;4.07;;;3.67;;
63499;SDS011;49654;51.142;14.924;2023-11-18T14:38:51;3.90;;;3.37;;
63499;SDS011;49654;51.142;14.924;2023-11-18T14:41:18;6.05;;;3.85;;
63499;SDS011;49654;51.142;14.924;2023-11-18T14:43:51;4.68;;;3.80;;
63499;SDS011;49654;51.142;14.924;2023-11-18T14:46:19;6.50;;;3.83;;
63499;SDS011;49654;51.142;14.924;2023-11-18T14:48:46;4.25;;;3.72;;
63499;SDS011;49654;51.142;14.924;2023-11-18T14:51:14;4.15;;;3.60;;
63499;SDS011;49654;51.142;14.924;2023-11-18T14:53:41;3.80;;;3.40;;
63499;SDS011;49654;51.142;14.924;2023-11-18T14:56:09;6.13;;;3.72;;
63499;SDS011;49654;51.142;14.924;2023-11-18T14:58:37;4.13;;;3.67;;
63499;SDS011;49654;51.142;14.924;2023-11-18T15:01:07;6.28;;;3.80;;
63499;SDS011;49654;51.142;14.924;2023-11-18T15:03:36;5.00;;;3.83;;
63499;SDS011;49654;51.142;14.924;2023-11-18T15:06:04;4.50;;;3.80;;
63499;SDS011;49654;51.142;14.924;2023-11-18T15:08:33;4.70;;;3.88;;
63499;SDS011;49654;51.142;14.924;2023-11-18T15:11:00;4.40;;;3.70;;
63499;SDS011;49654;51.142;14.924;2023-11-18T15:13:28;4.30;;;3.45;;
63499;SDS011;49654;51.142;14.924;2023-11-18T15:15:55;5.37;;;4.00;;
63499;SDS011;49654;51.142;14.924;2023-11-18T15:18:25;10.33;;;7.20;;
63499;SDS011;49654;51.142;14.924;2023-11-18T15:20:53;6.90;;;5.47;;
63499;SDS011;49654;51.142;14.924;2023-11-18T15:23:22;6.13;;;4.83;;
63499;SDS011;49654;51.142;14.924;2023-11-18T15:25:49;5.17;;;3.87;;
63499;SDS011;49654;51.142;14.924;2023-11-18T15:28:17;7.17;;;3.80;;
63499;SDS011;49654;51.142;14.924;2023-11-18T15:30:44;5.40;;;4.10;;
63499;SDS011;49654;51.142;14.924;2023-11-18T15:33:12;4.47;;;3.97;;
63499;SDS011;49654;51.142;14.924;2023-11-18T15:35:42;4.93;;;4.27;;
63499;SDS011;49654;51.142;14.924;2023-11-18T15:38:09;4.33;;;3.90;;
63499;SDS011;49654;51.142;14.924;2023-11-18T15:40:42;5.10;;;3.97;;
63499;SDS011;49654;51.142;14.924;2023-11-18T15:43:10;3.97;;;3.50;;
63499;SDS011;49654;51.142;14.924;2023-11-18T15:45:37;6.17;;;4.40;;
63499;SDS011;49654;51.142;14.924;2023-11-18T15:48:05;10.27;;;7.70;;
63499;SDS011;49654;51.142;14.924;2023-11-18T15:50:35;9.07;;;6.43;;
63499;SDS011;49654;51.142;14.924;2023-11-18T15:53:05;6.50;;;5.50;;
63499;SDS011;49654;51.142;14.924;2023-11-18T15:55:32;8.43;;;6.17;;
63499;SDS011;49654;51.142;14.924;2023-11-18T15:58:01;9.47;;;6.50;;
63499;SDS011;49654;51.142;14.924;2023-11-18T16:00:30;8.57;;;6.30;;
63499;SDS011;49654;51.142;14.924;2023-11-18T16:02:59;8.00;;;5.40;;
63499;SDS011;49654;51.142;14.924;2023-11-18T16:05:30;5.20;;;4.70;;
63499;SDS011;49654;51.142;14.924;2023-11-18T16:07:59;6.67;;;5.37;;
63499;SDS011;49654;51.142;14.924;2023-11-18T16:10:28;8.73;;;6.80;;
63499;SDS011;49654;51.142;14.924;2023-11-18T16:12:56;7.50;;;5.77;;
63499;SDS011;49654;51.142;14.924;2023-11-18T16:15:25;7.10;;;5.13;;